createdAt,value
2023-04-21T00:02:25.762Z,10.93
2023-04-21T00:04:53.790Z,13.07
2023-04-21T00:07:22.565Z,11.80
2023-04-21T00:09:50.324Z,12.37
2023-04-21T00:12:18.148Z,12.18
2023-04-21T00:14:47.173Z,11.25
2023-04-21T00:17:14.891Z,10.90
2023-04-21T00:19:42.605Z,11.55
2023-04-21T00:22:14.733Z,11.77
2023-04-21T00:24:42.467Z,11.43
2023-04-21T00:27:11.393Z,11.88
2023-04-21T00:29:40.328Z,11.93
2023-04-21T00:32:10.127Z,12.07
2023-04-21T00:34:38.320Z,13.07
2023-04-21T00:37:06.027Z,12.82
2023-04-21T00:39:33.795Z,12.43
2023-04-21T00:42:02.292Z,12.82
2023-04-21T00:44:30.031Z,12.57
2023-04-21T00:46:58.599Z,12.63
2023-04-21T00:49:27.869Z,13.10
2023-04-21T00:51:55.964Z,12.43
2023-04-21T00:54:25.766Z,12.52
2023-04-21T00:56:56.906Z,12.60
2023-04-21T00:59:24.704Z,12.47
2023-04-21T01:01:53.123Z,12.48
2023-04-21T01:04:22.301Z,13.27
2023-04-21T01:06:51.980Z,12.30
2023-04-21T01:09:20.383Z,12.43
2023-04-21T01:12:02.173Z,12.00
2023-04-21T01:14:30.290Z,12.07
2023-04-21T01:16:59.215Z,12.48
2023-04-21T01:19:31.201Z,12.18
2023-04-21T01:22:00.757Z,11.88
2023-04-21T01:24:38.266Z,12.83
2023-04-21T01:27:10.703Z,13.48
2023-04-21T01:29:39.696Z,11.63
2023-04-21T01:32:11.803Z,12.10
2023-04-21T01:34:41.446Z,12.25
2023-04-21T01:37:14.915Z,10.90
2023-04-21T01:39:44.675Z,11.90
2023-04-21T01:42:13.198Z,11.52
2023-04-21T01:44:41.207Z,11.38
2023-04-21T01:47:08.955Z,12.13
2023-04-21T01:49:36.703Z,12.30
2023-04-21T01:52:04.761Z,13.38
2023-04-21T01:54:33.899Z,12.15
2023-04-21T01:57:01.945Z,12.98
2023-04-21T01:59:29.721Z,14.05
2023-04-21T02:01:57.491Z,13.67
2023-04-21T02:04:25.420Z,14.00
2023-04-21T02:06:53.322Z,14.02
2023-04-21T02:09:21.263Z,13.38
2023-04-21T02:11:50.566Z,12.40
2023-04-21T02:14:18.397Z,13.10
2023-04-21T02:16:46.291Z,12.38
2023-04-21T02:19:14.179Z,12.25
2023-04-21T02:21:41.900Z,14.60
2023-04-21T02:24:09.626Z,11.07
2023-04-21T02:26:37.459Z,13.50
2023-04-21T02:29:08.453Z,13.13
2023-04-21T02:31:54.205Z,13.48
2023-04-21T02:34:27.092Z,12.60
2023-04-21T02:36:54.990Z,13.75
2023-04-21T02:39:22.887Z,12.90
2023-04-21T02:41:50.727Z,12.88
2023-04-21T02:44:19.949Z,14.13
2023-04-21T02:46:48.079Z,12.95
2023-04-21T02:49:16.154Z,13.27
2023-04-21T02:51:44.136Z,13.53
2023-04-21T02:54:12.037Z,13.13
2023-04-21T02:56:39.937Z,14.13
2023-04-21T02:59:07.901Z,14.00
2023-04-21T03:01:37.189Z,13.32
2023-04-21T03:04:05.564Z,14.03
2023-04-21T03:06:34.082Z,13.98
2023-04-21T03:09:02.119Z,13.05
2023-04-21T03:11:30.038Z,13.93
2023-04-21T03:13:57.978Z,13.45
2023-04-21T03:16:26.105Z,14.03
2023-04-21T03:18:55.316Z,14.48
2023-04-21T03:21:23.269Z,13.60
2023-04-21T03:23:51.151Z,14.38
2023-04-21T03:26:19.041Z,13.85
2023-04-21T03:28:46.975Z,13.33
2023-04-21T03:31:14.880Z,13.30
2023-04-21T03:33:43.062Z,12.57
2023-04-21T03:36:12.512Z,12.95
2023-04-21T03:38:41.142Z,13.07
2023-04-21T03:41:09.112Z,12.73
2023-04-21T03:43:37.034Z,13.20
2023-04-21T03:46:05.047Z,13.18
2023-04-21T03:48:33.005Z,12.68
2023-04-21T03:51:00.937Z,13.70
2023-04-21T03:53:30.150Z,13.77
2023-04-21T03:55:58.033Z,11.45
2023-04-21T03:58:26.130Z,12.25
2023-04-21T04:00:53.954Z,12.70
2023-04-21T04:03:23.532Z,12.82
2023-04-21T04:05:51.649Z,13.23
2023-04-21T04:08:19.901Z,12.73
2023-04-21T04:10:49.162Z,13.10
2023-04-21T04:13:17.089Z,11.50
2023-04-21T04:15:45.154Z,12.90
2023-04-21T04:18:13.097Z,11.80
2023-04-21T04:20:40.991Z,11.98
2023-04-21T04:23:09.173Z,12.75
2023-04-21T04:25:37.275Z,13.27
2023-04-21T04:28:07.353Z,12.70
2023-04-21T04:30:35.361Z,12.60
2023-04-21T04:33:03.596Z,12.07
2023-04-21T04:35:31.673Z,12.35
2023-04-21T04:37:59.676Z,11.95
2023-04-21T04:40:28.707Z,11.15
2023-04-21T04:42:56.609Z,11.63
2023-04-21T04:45:28.637Z,13.38
2023-04-21T04:47:56.617Z,11.63
2023-04-21T04:50:24.552Z,11.45
2023-04-21T04:52:52.405Z,11.48
2023-04-21T04:55:20.346Z,10.37
2023-04-21T04:57:48.758Z,11.48
2023-04-21T05:00:17.269Z,11.30
2023-04-21T05:02:46.703Z,11.10
2023-04-21T05:05:14.951Z,11.25
2023-04-21T05:07:42.899Z,10.87
2023-04-21T05:10:10.874Z,10.90
2023-04-21T05:12:38.891Z,11.63
2023-04-21T05:15:07.774Z,11.77
2023-04-21T05:17:35.698Z,11.50
2023-04-21T05:20:06.966Z,10.90
2023-04-21T05:22:38.294Z,10.38
2023-04-21T05:25:06.479Z,11.23
2023-04-21T05:27:34.941Z,11.30
2023-04-21T05:30:03.085Z,10.55
2023-04-21T05:32:31.153Z,10.77
2023-04-21T05:34:59.727Z,10.60
2023-04-21T05:37:29.088Z,11.32
2023-04-21T05:39:56.993Z,10.95
2023-04-21T05:42:24.929Z,11.27
2023-04-21T05:44:52.798Z,11.27
2023-04-21T05:47:20.756Z,11.15
2023-04-21T05:49:50.397Z,10.45
2023-04-21T05:52:18.597Z,10.55
2023-04-21T05:54:48.025Z,11.05
2023-04-21T05:57:17.615Z,10.67
2023-04-21T05:59:45.681Z,10.98
2023-04-21T06:02:13.718Z,10.13
2023-04-21T06:04:42.098Z,10.32
2023-04-21T06:07:13.428Z,10.57
2023-04-21T06:09:41.764Z,10.17
2023-04-21T06:12:11.012Z,11.40
2023-04-21T06:14:38.992Z,9.68
2023-04-21T06:17:06.821Z,9.35
2023-04-21T06:19:38.236Z,9.70
2023-04-21T06:22:06.374Z,9.00
2023-04-21T06:24:34.624Z,9.20
2023-04-21T06:27:02.703Z,9.13
2023-04-21T06:29:31.874Z,9.57
2023-04-21T06:31:59.782Z,8.85
2023-04-21T06:34:27.751Z,9.80
2023-04-21T06:36:55.717Z,8.45
2023-04-21T06:39:23.729Z,8.70
2023-04-21T06:41:51.667Z,8.43
2023-04-21T06:44:20.032Z,9.07
2023-04-21T06:46:49.505Z,8.03
2023-04-21T06:49:17.663Z,9.25
2023-04-21T06:51:46.297Z,8.65
2023-04-21T06:54:14.179Z,9.55
2023-04-21T06:56:42.916Z,8.73
2023-04-21T06:59:11.115Z,8.93
2023-04-21T07:01:39.316Z,8.02
2023-04-21T07:04:08.771Z,7.43
2023-04-21T07:06:36.661Z,7.97
2023-04-21T07:09:06.944Z,7.85
2023-04-21T07:11:34.817Z,7.77
2023-04-21T07:14:03.063Z,7.63
2023-04-21T07:16:31.118Z,6.93
2023-04-21T07:18:59.417Z,8.13
2023-04-21T07:21:30.189Z,7.93
2023-04-21T07:23:58.350Z,7.40
2023-04-21T07:26:26.221Z,7.32
2023-04-21T07:28:55.389Z,8.43
2023-04-21T07:31:23.359Z,7.80
2023-04-21T07:33:51.692Z,7.45
2023-04-21T07:36:19.906Z,7.10
2023-04-21T07:38:49.173Z,7.72
2023-04-21T07:41:17.098Z,6.78
2023-04-21T07:43:44.965Z,7.75
2023-04-21T07:46:13.474Z,6.90
2023-04-21T07:48:41.814Z,7.13
2023-04-21T07:51:09.745Z,7.78
2023-04-21T07:53:37.892Z,7.18
2023-04-21T07:56:07.852Z,7.20
2023-04-21T07:58:35.922Z,7.18
2023-04-21T08:01:03.891Z,7.03
2023-04-21T08:03:32.080Z,7.40
2023-04-21T08:06:00.388Z,7.15
2023-04-21T08:08:31.431Z,7.00
2023-04-21T08:10:59.939Z,7.38
2023-04-21T08:13:29.538Z,7.93
2023-04-21T08:15:57.573Z,7.70
2023-04-21T08:18:25.830Z,6.78
2023-04-21T08:20:53.795Z,7.45
2023-04-21T08:23:21.996Z,7.63
2023-04-21T08:25:49.913Z,6.57
2023-04-21T08:28:17.932Z,7.22
2023-04-21T08:30:47.229Z,7.30
2023-04-21T08:33:15.330Z,6.38
2023-04-21T08:35:55.074Z,6.72
2023-04-21T08:38:30.696Z,7.10
2023-04-21T08:41:00.590Z,7.35
2023-04-21T08:43:30.153Z,6.32
2023-04-21T08:46:00.707Z,6.45
2023-04-21T08:48:30.752Z,6.32
2023-04-21T08:50:59.220Z,6.67
2023-04-21T08:53:27.268Z,6.97
2023-04-21T08:56:09.845Z,6.85
2023-04-21T08:58:39.339Z,6.30
2023-04-21T09:01:08.689Z,6.78
2023-04-21T09:03:36.818Z,7.57
2023-04-21T09:06:08.862Z,6.45
2023-04-21T09:08:40.001Z,7.03
2023-04-21T09:11:07.978Z,7.22
2023-04-21T09:13:37.843Z,7.13
2023-04-21T09:16:17.244Z,6.60
2023-04-21T09:18:45.313Z,6.45
2023-04-21T09:21:15.030Z,5.88
2023-04-21T09:23:44.494Z,6.50
2023-04-21T09:26:13.223Z,5.72
2023-04-21T09:28:44.508Z,5.77
2023-04-21T09:31:19.800Z,5.95
2023-04-21T09:33:57.163Z,6.35
2023-04-21T09:36:28.808Z,5.30
2023-04-21T09:39:20.571Z,6.10
2023-04-21T09:41:46.548Z,5.77
2023-04-21T09:44:14.506Z,5.35
2023-04-21T09:46:45.196Z,5.78
2023-04-21T09:49:17.462Z,5.70
2023-04-21T09:54:29.151Z,5.80
2023-04-21T09:57:01.685Z,6.15
2023-04-21T09:59:31.852Z,5.63
2023-04-21T10:02:02.171Z,5.97
2023-04-21T10:04:32.614Z,5.70
2023-04-21T10:07:01.150Z,5.80
2023-04-21T10:09:42.737Z,5.47
2023-04-21T10:12:11.160Z,5.35
2023-04-21T10:14:39.111Z,5.30
2023-04-21T10:17:11.039Z,5.20
2023-04-21T10:19:48.628Z,5.07
2023-04-21T10:22:28.023Z,6.00
2023-04-21T10:24:56.849Z,5.47
2023-04-21T10:27:35.622Z,5.07
2023-04-21T10:30:19.489Z,4.63
2023-04-21T10:32:49.361Z,5.20
2023-04-21T10:35:24.674Z,5.00
2023-04-21T10:37:53.233Z,4.95
2023-04-21T10:43:45.179Z,4.35
2023-04-21T10:46:32.605Z,4.90
2023-04-21T10:49:07.813Z,4.55
2023-04-21T10:52:06.712Z,5.18
2023-04-21T10:54:42.911Z,4.47
2023-04-21T10:57:12.775Z,5.13
2023-04-21T10:59:41.563Z,4.57
2023-04-21T11:02:12.180Z,4.82
2023-04-21T11:04:45.303Z,4.70
2023-04-21T11:07:16.852Z,4.88
2023-04-21T11:09:46.569Z,4.32
2023-04-21T11:12:16.077Z,4.53
2023-04-21T11:14:46.307Z,5.00
2023-04-21T11:17:16.351Z,4.28
2023-04-21T11:19:46.777Z,4.50
2023-04-21T11:22:17.662Z,4.70
2023-04-21T11:24:46.103Z,4.20
2023-04-21T11:27:14.577Z,4.07
2023-04-21T11:29:43.132Z,4.25
2023-04-21T11:32:12.438Z,4.43
2023-04-21T11:34:40.628Z,4.20
2023-04-21T11:37:09.261Z,5.03
2023-04-21T11:39:41.471Z,4.43
2023-04-21T11:42:09.358Z,4.18
2023-04-21T11:44:38.580Z,3.90
2023-04-21T11:47:16.843Z,3.95
2023-04-21T11:49:46.993Z,4.17
2023-04-21T11:52:26.293Z,3.72
2023-04-21T11:55:00.970Z,3.03
2023-04-21T11:57:29.772Z,3.28
2023-04-21T12:00:00.270Z,3.45
2023-04-21T12:02:31.416Z,3.27
2023-04-21T12:05:02.121Z,3.03
2023-04-21T12:07:31.403Z,2.95
2023-04-21T12:10:01.706Z,2.63
2023-04-21T12:12:31.818Z,3.03
2023-04-21T12:15:03.893Z,3.13
2023-04-21T12:17:38.020Z,2.80
2023-04-21T12:20:07.249Z,2.60
2023-04-21T12:22:35.386Z,3.20
2023-04-21T12:25:05.465Z,3.10
2023-04-21T12:27:33.551Z,3.03
2023-04-21T12:30:01.577Z,4.38
2023-04-21T12:32:29.437Z,2.47
2023-04-21T12:34:57.319Z,2.90
2023-04-21T12:37:25.879Z,3.20
2023-04-21T12:39:53.868Z,3.10
2023-04-21T12:42:23.676Z,3.40
2023-04-21T12:44:51.643Z,2.85
2023-04-21T12:47:19.677Z,3.30
2023-04-21T12:49:47.802Z,2.95
2023-04-21T12:52:15.723Z,3.20
2023-04-21T12:54:44.735Z,3.05
2023-04-21T12:57:12.926Z,2.75
2023-04-21T12:59:43.638Z,2.85
2023-04-21T13:02:13.559Z,2.67
2023-04-21T13:04:42.793Z,2.77
2023-04-21T13:07:10.935Z,2.60
2023-04-21T13:09:39.442Z,2.80
2023-04-21T13:12:07.489Z,2.80
2023-04-21T13:14:35.366Z,2.45
2023-04-21T13:17:05.265Z,2.27
2023-04-21T13:19:33.633Z,2.80
2023-04-21T13:22:01.830Z,2.70
2023-04-21T13:24:31.005Z,2.90
2023-04-21T13:26:59.225Z,2.58
2023-04-21T13:29:29.965Z,2.87
2023-04-21T13:31:58.519Z,3.30
2023-04-21T13:34:28.161Z,2.95
2023-04-21T13:36:56.118Z,2.50
2023-04-21T13:39:24.234Z,2.80
2023-04-21T13:41:54.327Z,3.40
2023-04-21T13:44:22.548Z,3.28
2023-04-21T13:46:52.292Z,3.20
2023-04-21T13:49:21.253Z,2.80
2023-04-21T13:51:51.340Z,3.45
2023-04-21T13:54:19.675Z,2.90
2023-04-21T13:56:48.076Z,2.85
2023-04-21T13:59:16.735Z,2.85
2023-04-21T14:01:44.870Z,2.72
2023-04-21T14:04:13.338Z,2.65
2023-04-21T14:06:42.086Z,2.83
2023-04-21T14:09:11.957Z,2.72
2023-04-21T14:11:40.167Z,3.08
2023-04-21T14:14:10.278Z,3.60
2023-04-21T14:16:39.183Z,2.83
2023-04-21T14:19:07.894Z,3.03
2023-04-21T14:21:36.193Z,3.30
2023-04-21T14:24:04.591Z,3.03
2023-04-21T14:26:34.509Z,3.10
2023-04-21T14:29:03.332Z,2.70
2023-04-21T14:31:32.010Z,2.77
2023-04-21T14:34:00.739Z,3.15
2023-04-21T14:36:29.049Z,2.78
2023-04-21T14:38:57.272Z,3.28
2023-04-21T14:41:25.850Z,2.70
2023-04-21T14:43:57.785Z,3.30
2023-04-21T14:46:26.613Z,3.20
2023-04-21T14:48:55.043Z,2.78
2023-04-21T14:51:23.695Z,3.17
2023-04-21T14:53:52.244Z,2.83
2023-04-21T14:56:20.820Z,2.97
2023-04-21T14:58:48.885Z,3.08
2023-04-21T15:01:18.383Z,2.60
2023-04-21T15:03:46.878Z,2.53
2023-04-21T15:06:16.198Z,2.78
2023-04-21T15:08:44.402Z,2.73
2023-04-21T15:11:13.046Z,2.67
2023-04-21T15:13:41.330Z,2.80
2023-04-21T15:16:09.572Z,2.65
2023-04-21T15:18:39.228Z,2.63
2023-04-21T15:21:07.489Z,3.17
2023-04-21T15:23:36.403Z,2.80
2023-04-21T15:26:04.755Z,2.50
2023-04-21T15:28:33.738Z,2.60
2023-04-21T15:31:02.124Z,2.80
2023-04-21T15:33:30.263Z,3.07
2023-04-21T15:35:59.561Z,3.63
2023-04-21T15:38:27.805Z,2.92
2023-04-21T15:41:01.201Z,3.50
2023-04-21T15:43:29.950Z,3.30
2023-04-21T15:45:58.365Z,3.23
2023-04-21T15:48:27.722Z,3.55
2023-04-21T15:50:55.760Z,3.50
2023-04-21T15:53:25.571Z,3.15
2023-04-21T15:55:53.574Z,3.45
2023-04-21T15:58:22.250Z,3.13
2023-04-21T16:00:50.232Z,3.40
2023-04-21T16:03:18.400Z,3.38
2023-04-21T16:05:47.030Z,3.35
2023-04-21T16:08:15.178Z,3.60
2023-04-21T16:10:45.022Z,3.60
2023-04-21T16:13:13.295Z,3.90
2023-04-21T16:15:41.713Z,3.42
2023-04-21T16:18:09.822Z,3.80
2023-04-21T16:20:38.815Z,3.47
2023-04-21T16:23:06.927Z,3.13
2023-04-21T16:25:35.099Z,3.60
2023-04-21T16:28:06.336Z,3.67
2023-04-21T16:30:35.960Z,3.47
2023-04-21T16:33:04.632Z,3.42
2023-04-21T16:35:32.823Z,3.90
2023-04-21T16:38:00.993Z,3.10
2023-04-21T16:40:28.891Z,3.33
2023-04-21T16:42:56.808Z,3.47
2023-04-21T16:45:26.187Z,3.08
2023-04-21T16:47:54.233Z,2.60
2023-04-21T16:50:22.230Z,2.90
2023-04-21T16:52:50.219Z,3.20
2023-04-21T16:55:18.292Z,3.95
2023-04-21T16:57:46.228Z,3.13
2023-04-21T17:00:15.240Z,3.23
2023-04-21T17:02:44.958Z,4.07
2023-04-21T17:05:13.069Z,3.45
2023-04-21T17:07:41.032Z,3.67
2023-04-21T17:10:09.527Z,3.38
2023-04-21T17:12:37.574Z,3.13
2023-04-21T17:15:06.137Z,3.28
2023-04-21T17:17:42.184Z,3.25
2023-04-21T17:20:13.989Z,3.63
2023-04-21T17:22:42.388Z,3.13
2023-04-21T17:25:11.591Z,3.60
2023-04-21T17:27:40.772Z,2.85
2023-04-21T17:30:09.996Z,3.00
2023-04-21T17:32:40.442Z,3.30
2023-04-21T17:35:08.949Z,3.08
2023-04-21T17:37:38.334Z,3.23
2023-04-21T17:40:09.447Z,2.97
2023-04-21T17:42:37.415Z,3.28
2023-04-21T17:45:07.486Z,3.25
2023-04-21T17:47:36.376Z,3.22
2023-04-21T17:50:05.003Z,2.67
2023-04-21T17:52:32.965Z,3.35
2023-04-21T17:55:02.301Z,2.90
2023-04-21T17:57:30.865Z,3.50
2023-04-21T17:59:58.880Z,2.72
2023-04-21T18:02:26.988Z,2.83
2023-04-21T18:04:55.011Z,3.20
2023-04-21T18:07:23.069Z,3.13
2023-04-21T18:09:51.606Z,3.38
2023-04-21T18:12:21.082Z,3.00
2023-04-21T18:14:49.334Z,2.97
2023-04-21T18:17:17.606Z,2.40
2023-04-21T18:19:45.596Z,2.78
2023-04-21T18:22:13.512Z,3.03
2023-04-21T18:24:42.241Z,3.22
2023-04-21T18:27:11.174Z,3.30
2023-04-21T18:29:40.650Z,3.42
2023-04-21T18:32:09.144Z,3.35
2023-04-21T18:34:38.671Z,3.03
2023-04-21T18:37:07.360Z,3.17
2023-04-21T18:39:36.406Z,3.60
2023-04-21T18:42:05.658Z,3.30
2023-04-21T18:44:33.773Z,3.30
2023-04-21T18:47:03.226Z,3.78
2023-04-21T18:49:31.523Z,3.53
2023-04-21T18:51:59.445Z,3.53
2023-04-21T18:54:27.823Z,3.33
2023-04-21T18:56:55.706Z,3.53
2023-04-21T18:59:23.698Z,3.10
2023-04-21T19:01:51.789Z,3.10
2023-04-21T19:04:21.266Z,3.43
2023-04-21T19:06:49.661Z,3.15
2023-04-21T19:09:17.949Z,3.15
2023-04-21T19:11:46.232Z,3.47
2023-04-21T19:14:14.152Z,3.60
2023-04-21T19:16:42.081Z,3.70
2023-04-21T19:19:10.024Z,3.40
2023-04-21T19:21:39.599Z,3.20
2023-04-21T19:24:07.707Z,2.95
2023-04-21T19:26:35.938Z,2.95
2023-04-21T19:29:04.801Z,3.50
2023-04-21T19:31:32.777Z,3.47
2023-04-21T19:34:00.726Z,2.85
2023-04-21T19:36:28.651Z,3.03
2023-04-21T19:38:58.063Z,3.40
2023-04-21T19:41:26.099Z,3.40
2023-04-21T19:43:54.069Z,3.40
2023-04-21T19:46:22.218Z,2.97
2023-04-21T19:48:50.717Z,3.08
2023-04-21T19:51:18.896Z,3.30
2023-04-21T19:53:53.524Z,3.80
2023-04-21T19:56:29.940Z,3.42
2023-04-21T19:59:00.388Z,3.83
2023-04-21T20:01:28.447Z,4.32
2023-04-21T20:03:56.574Z,3.13
2023-04-21T20:06:24.748Z,3.07
2023-04-21T20:08:52.836Z,3.90
2023-04-21T20:11:21.024Z,3.60
2023-04-21T20:13:51.488Z,3.20
2023-04-21T20:16:19.934Z,2.95
2023-04-21T20:18:48.906Z,3.50
2023-04-21T20:21:16.870Z,3.42
2023-04-21T20:23:44.745Z,3.90
2023-04-21T20:26:12.664Z,3.60
2023-04-21T20:28:40.627Z,3.35
2023-04-21T20:31:10.140Z,3.37
2023-04-21T20:33:38.058Z,3.58
2023-04-21T20:36:08.441Z,3.08
2023-04-21T20:38:36.510Z,3.10
2023-04-21T20:41:04.830Z,3.60
2023-04-21T20:43:33.637Z,2.70
2023-04-21T20:46:01.850Z,3.30
2023-04-21T20:48:31.395Z,2.92
2023-04-21T20:50:59.466Z,3.08
2023-04-21T20:53:27.975Z,3.03
2023-04-21T20:55:55.941Z,3.30
2023-04-21T20:58:24.687Z,3.10
2023-04-21T21:00:52.700Z,3.50
2023-04-21T21:03:21.067Z,4.00
2023-04-21T21:05:50.672Z,3.95
2023-04-21T21:08:18.876Z,4.50
2023-04-21T21:10:46.797Z,5.28
2023-04-21T21:13:14.686Z,3.78
2023-04-21T21:15:42.709Z,4.07
2023-04-21T21:18:10.625Z,3.38
2023-04-21T21:20:38.652Z,3.80
2023-04-21T21:23:07.965Z,3.40
2023-04-21T21:25:35.908Z,3.30
2023-04-21T21:28:03.933Z,3.58
2023-04-21T21:30:31.877Z,3.72
2023-04-21T21:32:59.853Z,3.27
2023-04-21T21:35:28.033Z,3.53
2023-04-21T21:37:55.934Z,3.53
2023-04-21T21:40:25.114Z,3.40
2023-04-21T21:42:53.196Z,3.13
2023-04-21T21:45:21.329Z,3.30
2023-04-21T21:47:50.160Z,3.65
2023-04-21T21:50:18.210Z,3.50
2023-04-21T21:52:46.352Z,3.33
2023-04-21T21:55:14.293Z,3.30
2023-04-21T21:57:43.849Z,2.90
2023-04-21T22:00:14.178Z,4.00
2023-04-21T22:02:43.007Z,3.30
2023-04-21T22:05:11.686Z,3.17
2023-04-21T22:07:42.864Z,3.67
2023-04-21T22:10:11.836Z,3.77
2023-04-21T22:12:39.972Z,3.90
2023-04-21T22:15:10.380Z,3.75
2023-04-21T22:17:38.374Z,4.00
2023-04-21T22:20:08.477Z,4.03
2023-04-21T22:22:36.983Z,3.30
2023-04-21T22:25:05.299Z,3.88
2023-04-21T22:27:33.770Z,3.67
2023-04-21T22:30:03.321Z,3.60
2023-04-21T22:32:34.895Z,3.40
2023-04-21T22:35:03.381Z,3.50
2023-04-21T22:37:31.293Z,2.97
2023-04-21T22:39:59.769Z,2.70
2023-04-21T22:42:27.792Z,2.72
2023-04-21T22:44:55.836Z,3.63
2023-04-21T22:47:23.934Z,3.10
2023-04-21T22:49:53.482Z,2.85
2023-04-21T22:52:21.414Z,2.72
2023-04-21T22:54:49.334Z,3.42
2023-04-21T22:57:17.251Z,3.10
2023-04-21T22:59:45.370Z,3.33
2023-04-21T23:02:13.760Z,3.50
2023-04-21T23:04:44.114Z,3.38
2023-04-21T23:07:13.618Z,3.42
2023-04-21T23:09:41.741Z,3.80
2023-04-21T23:12:09.702Z,3.10
2023-04-21T23:14:37.669Z,2.97
2023-04-21T23:17:05.994Z,4.15
2023-04-21T23:19:33.859Z,2.97
2023-04-21T23:22:01.881Z,3.35
2023-04-21T23:24:31.116Z,3.30
2023-04-21T23:26:59.223Z,3.20
2023-04-21T23:29:27.203Z,3.05
2023-04-21T23:31:55.289Z,3.58
2023-04-21T23:34:24.531Z,3.15
2023-04-21T23:36:52.413Z,3.07
2023-04-21T23:39:21.557Z,3.42
2023-04-21T23:41:50.866Z,3.17
2023-04-21T23:44:18.767Z,3.70
2023-04-21T23:46:46.673Z,3.50
2023-04-21T23:49:14.636Z,3.10
2023-04-21T23:51:42.698Z,3.60
2023-04-21T23:54:10.654Z,3.42
2023-04-21T23:56:38.496Z,3.42
2023-04-21T23:59:07.755Z,3.10
